createdAt,value
2019-05-25T00:02:34.880Z,23.1
2019-05-25T00:05:41.227Z,23
2019-05-25T00:08:47.401Z,23
2019-05-25T00:11:53.690Z,23
2019-05-25T00:14:59.838Z,23
2019-05-25T00:18:06.243Z,23
2019-05-25T00:21:14.145Z,23
2019-05-25T00:24:20.462Z,23
2019-05-25T00:27:26.605Z,23
2019-05-25T00:30:32.874Z,23
2019-05-25T00:33:39.040Z,22.9
2019-05-25T00:36:45.302Z,22.9
2019-05-25T00:39:51.498Z,22.9
2019-05-25T00:42:57.690Z,22.9
2019-05-25T00:46:03.837Z,22.9
2019-05-25T00:49:10.189Z,22.9
2019-05-25T00:52:16.381Z,22.9
2019-05-25T00:55:22.569Z,22.9
2019-05-25T00:58:28.838Z,22.9
2019-05-25T01:01:35.125Z,22.9
2019-05-25T01:04:41.329Z,22.9
2019-05-25T01:07:47.543Z,22.9
2019-05-25T01:10:53.846Z,22.9
2019-05-25T01:14:00.106Z,22.9
2019-05-25T01:17:06.323Z,22.9
2019-05-25T01:20:12.500Z,22.9
2019-05-25T01:23:18.701Z,22.9
2019-05-25T01:26:24.914Z,22.9
2019-05-25T01:29:31.015Z,22.9
2019-05-25T01:32:37.203Z,22.9
2019-05-25T01:35:43.522Z,22.8
2019-05-25T01:38:49.691Z,22.8
2019-05-25T01:41:55.958Z,22.8
2019-05-25T01:45:05.045Z,22.8
2019-05-25T01:48:11.190Z,22.8
2019-05-25T01:51:17.354Z,22.8
2019-05-25T01:54:23.599Z,22.8
2019-05-25T01:57:29.926Z,22.8
2019-05-25T02:00:36.090Z,22.7
2019-05-25T02:03:42.386Z,22.7
2019-05-25T02:06:48.642Z,22.8
2019-05-25T02:09:54.850Z,22.8
2019-05-25T02:13:01.000Z,22.7
2019-05-25T02:16:07.172Z,22.7
2019-05-25T02:19:13.523Z,22.7
2019-05-25T02:22:19.814Z,22.7
2019-05-25T02:25:26.031Z,22.7
2019-05-25T02:28:32.298Z,22.7
2019-05-25T02:31:38.433Z,22.7
2019-05-25T02:34:44.572Z,22.7
2019-05-25T02:37:50.935Z,22.7
2019-05-25T02:41:00.024Z,22.6
2019-05-25T02:44:06.210Z,22.6
2019-05-25T02:47:12.490Z,22.6
2019-05-25T02:50:18.652Z,22.6
2019-05-25T02:53:24.905Z,22.6
2019-05-25T02:56:31.087Z,22.6
2019-05-25T02:59:37.255Z,22.6
2019-05-25T03:02:43.478Z,22.6
2019-05-25T03:05:50.378Z,22.6
2019-05-25T03:08:56.594Z,22.5
2019-05-25T03:12:02.833Z,22.5
2019-05-25T03:15:09.034Z,22.6
2019-05-25T03:18:15.177Z,22.6
2019-05-25T03:21:21.381Z,22.5
2019-05-25T03:24:27.626Z,22.5
2019-05-25T03:27:33.821Z,22.5
2019-05-25T03:30:40.064Z,22.5
2019-05-25T03:33:46.182Z,22.5
2019-05-25T03:36:52.351Z,22.5
2019-05-25T03:39:58.668Z,22.5
2019-05-25T03:43:04.794Z,22.5
2019-05-25T03:46:10.983Z,22.5
2019-05-25T03:49:17.111Z,22.5
2019-05-25T03:52:23.280Z,22.5
2019-05-25T03:55:29.540Z,22.5
2019-05-25T03:58:35.701Z,22.5
2019-05-25T04:01:41.958Z,22.5
2019-05-25T04:04:48.170Z,22.5
2019-05-25T04:07:54.443Z,22.5
2019-05-25T04:11:00.605Z,22.5
2019-05-25T04:14:06.829Z,22.7
2019-05-25T04:17:13.049Z,22.7
2019-05-25T04:20:19.217Z,22.9
2019-05-25T04:23:25.470Z,22.9
2019-05-25T04:26:31.596Z,23
2019-05-25T04:29:37.757Z,23.1
2019-05-25T04:32:44.032Z,23.3
2019-05-25T04:35:50.306Z,23.3
2019-05-25T04:38:56.507Z,23.2
2019-05-25T04:42:02.660Z,23.2
2019-05-25T04:45:08.847Z,23.2
2019-05-25T04:48:15.219Z,23.2
2019-05-25T04:51:21.447Z,23.2
2019-05-25T04:54:27.664Z,23.3
2019-05-25T04:57:33.849Z,23.3
2019-05-25T05:00:42.561Z,23.4
2019-05-25T05:03:48.745Z,23.4
2019-05-25T05:06:54.987Z,23.4
2019-05-25T05:10:02.881Z,23.4
2019-05-25T05:13:09.575Z,23.5
2019-05-25T05:16:15.780Z,23.5
2019-05-25T05:19:21.907Z,23.5
2019-05-25T05:22:28.088Z,23.6
2019-05-25T05:25:34.324Z,23.6
2019-05-25T05:28:40.511Z,23.7
2019-05-25T05:31:46.766Z,23.7
2019-05-25T05:34:52.969Z,23.7
2019-05-25T05:37:59.148Z,23.8
2019-05-25T05:41:05.315Z,23.8
2019-05-25T05:44:11.526Z,23.8
2019-05-25T05:47:17.736Z,23.8
2019-05-25T05:50:23.914Z,23.9
2019-05-25T05:53:30.053Z,23.9
2019-05-25T05:56:36.223Z,23.9
2019-05-25T05:59:42.354Z,23.9
2019-05-25T06:02:51.041Z,24
2019-05-25T06:05:57.325Z,24
2019-05-25T06:09:03.612Z,24
2019-05-25T06:12:10.190Z,24
2019-05-25T06:15:16.354Z,24.1
2019-05-25T06:18:22.572Z,24.1
2019-05-25T06:21:28.811Z,24.1
2019-05-25T06:24:34.971Z,24.1
2019-05-25T06:27:41.091Z,24.1
2019-05-25T06:30:47.288Z,24.1
2019-05-25T06:33:53.419Z,24.1
2019-05-25T06:36:59.605Z,24.1
2019-05-25T06:40:05.821Z,24.1
2019-05-25T06:43:12.091Z,24.2
2019-05-25T06:46:18.296Z,24.2
2019-05-25T06:49:24.559Z,24.3
2019-05-25T06:52:30.820Z,24.3
2019-05-25T06:55:36.997Z,24.3
2019-05-25T06:58:43.159Z,24.3
2019-05-25T07:01:49.483Z,24.4
2019-05-25T07:04:55.680Z,24.4
2019-05-25T07:08:04.980Z,24.4
2019-05-25T07:11:11.258Z,24.4
2019-05-25T07:14:17.458Z,24.5
2019-05-25T07:17:23.708Z,24.5
2019-05-25T07:20:29.936Z,24.5
2019-05-25T07:23:36.114Z,24.5
2019-05-25T07:26:42.500Z,24.6
2019-05-25T07:29:48.684Z,24.6
2019-05-25T07:32:54.890Z,24.6
2019-05-25T07:36:01.490Z,24.6
2019-05-25T07:39:13.156Z,24.6
2019-05-25T07:42:20.027Z,24.6
2019-05-25T07:45:26.390Z,24.7
2019-05-25T07:48:32.652Z,24.7
2019-05-25T07:51:38.806Z,24.7
2019-05-25T07:54:44.989Z,24.7
2019-05-25T07:57:51.249Z,24.7
2019-05-25T08:00:57.384Z,24.7
2019-05-25T08:04:06.479Z,24.7
2019-05-25T08:07:12.659Z,24.7
2019-05-25T08:10:18.939Z,24.8
2019-05-25T08:13:25.097Z,24.8
2019-05-25T08:16:31.347Z,24.9
2019-05-25T08:19:37.551Z,24.9
2019-05-25T08:22:43.800Z,24.9
2019-05-25T08:25:50.004Z,25
2019-05-25T08:28:56.192Z,25.1
2019-05-25T08:32:02.372Z,25.1
2019-05-25T08:35:08.533Z,25.1
2019-05-25T08:38:14.803Z,25.2
2019-05-25T08:41:21.161Z,25.2
2019-05-25T08:44:27.329Z,25.3
2019-05-25T08:47:33.500Z,25.3
2019-05-25T08:50:39.788Z,25.4
2019-05-25T08:53:48.921Z,25.4
2019-05-25T08:56:55.177Z,25.4
2019-05-25T09:00:01.700Z,25.4
2019-05-25T09:03:08.355Z,25.4
2019-05-25T09:06:14.754Z,25.5
2019-05-25T09:09:21.019Z,25.5
2019-05-25T09:12:27.297Z,25.5
2019-05-25T09:15:33.576Z,25.5
2019-05-25T09:18:39.903Z,25.5
2019-05-25T09:22:01.281Z,25.5
2019-05-25T09:25:09.595Z,25.5
2019-05-25T09:28:15.894Z,25.6
2019-05-25T09:31:22.279Z,25.6
2019-05-25T09:34:28.425Z,25.6
2019-05-25T09:37:34.614Z,25.6
2019-05-25T09:40:43.527Z,25.6
2019-05-25T09:43:49.753Z,25.6
2019-05-25T09:46:56.072Z,25.7
2019-05-25T09:50:02.376Z,25.7
2019-05-25T09:53:08.548Z,25.7
2019-05-25T09:56:14.771Z,25.7
2019-05-25T09:59:20.979Z,25.7
2019-05-25T10:02:27.248Z,25.7
2019-05-25T10:05:33.671Z,25.7
2019-05-25T10:08:40.113Z,25.7
2019-05-25T10:11:46.377Z,25.7
2019-05-25T10:14:52.666Z,25.8
2019-05-25T10:17:59.010Z,25.8
2019-05-25T10:21:05.258Z,25.7
2019-05-25T10:24:11.516Z,25.7
2019-05-25T10:27:17.759Z,25.7
2019-05-25T10:30:23.986Z,25.7
2019-05-25T10:33:30.159Z,25.7
2019-05-25T10:36:40.155Z,25.7
2019-05-25T10:39:46.385Z,25.7
2019-05-25T10:42:52.538Z,25.7
2019-05-25T10:45:58.767Z,25.7
2019-05-25T10:49:05.059Z,25.7
2019-05-25T10:52:14.878Z,25.7
2019-05-25T10:55:21.179Z,25.8
2019-05-25T10:58:27.362Z,25.8
2019-05-25T11:01:33.514Z,25.8
2019-05-25T11:04:39.826Z,25.8
2019-05-25T11:07:45.951Z,25.8
2019-05-25T11:10:54.888Z,25.8
2019-05-25T11:14:01.034Z,25.8
2019-05-25T11:17:07.395Z,25.8
2019-05-25T11:20:13.716Z,25.8
2019-05-25T11:23:19.988Z,25.8
2019-05-25T11:26:26.111Z,25.8
2019-05-25T11:29:32.344Z,25.8
2019-05-25T11:32:38.597Z,25.8
2019-05-25T11:35:44.755Z,25.8
2019-05-25T11:38:50.926Z,25.8
2019-05-25T11:41:57.026Z,25.8
2019-05-25T11:45:03.182Z,25.8
2019-05-25T11:48:09.375Z,25.8
2019-05-25T11:51:15.553Z,25.8
2019-05-25T11:54:21.737Z,25.8
2019-05-25T11:57:27.952Z,25.8
2019-05-25T12:00:37.404Z,25.8
2019-05-25T12:03:43.610Z,25.8
2019-05-25T12:06:49.769Z,25.8
2019-05-25T12:09:56.086Z,25.8
2019-05-25T12:13:02.319Z,25.8
2019-05-25T12:16:08.531Z,25.8
2019-05-25T12:19:15.138Z,25.8
2019-05-25T12:22:21.406Z,25.8
2019-05-25T12:25:27.584Z,25.8
2019-05-25T12:28:33.802Z,25.8
2019-05-25T12:31:39.979Z,25.8
2019-05-25T12:34:46.135Z,25.8
2019-05-25T12:37:52.305Z,25.8
2019-05-25T12:40:58.487Z,25.8
2019-05-25T12:44:04.739Z,25.8
2019-05-25T12:47:10.975Z,25.8
2019-05-25T12:50:17.219Z,25.8
2019-05-25T12:53:23.493Z,25.7
2019-05-25T12:56:29.641Z,25.7
2019-05-25T12:59:36.005Z,25.7
2019-05-25T13:02:42.212Z,25.7
2019-05-25T13:05:48.499Z,25.7
2019-05-25T13:08:55.008Z,25.8
2019-05-25T13:12:01.261Z,25.7
2019-05-25T13:15:07.383Z,25.8
2019-05-25T13:18:13.733Z,25.7
2019-05-25T13:21:19.937Z,25.7
2019-05-25T13:24:26.087Z,25.7
2019-05-25T13:27:32.273Z,25.8
2019-05-25T13:30:38.403Z,25.7
2019-05-25T13:33:44.571Z,25.7
2019-05-25T13:36:50.769Z,25.7
2019-05-25T13:39:56.896Z,25.7
2019-05-25T13:43:03.206Z,25.7
2019-05-25T13:46:09.454Z,25.7
2019-05-25T13:49:15.662Z,25.7
2019-05-25T13:52:21.913Z,25.7
2019-05-25T13:55:30.933Z,25.7
2019-05-25T13:58:39.106Z,25.7
2019-05-25T14:01:45.479Z,25.7
2019-05-25T14:04:51.641Z,25.7
2019-05-25T14:07:57.856Z,25.7
2019-05-25T14:11:03.999Z,25.7
2019-05-25T14:14:10.183Z,25.7
2019-05-25T14:17:16.316Z,25.7
2019-05-25T14:20:22.501Z,25.7
2019-05-25T14:23:28.624Z,25.7
2019-05-25T14:26:34.872Z,25.7
2019-05-25T14:29:41.038Z,25.7
2019-05-25T14:32:47.277Z,25.6
2019-05-25T14:35:53.569Z,25.7
2019-05-25T14:38:59.811Z,25.6
2019-05-25T14:42:05.986Z,25.7
2019-05-25T14:45:12.182Z,25.6
2019-05-25T14:48:18.365Z,25.7
2019-05-25T14:51:24.454Z,25.6
2019-05-25T14:54:30.643Z,25.6
2019-05-25T14:57:36.925Z,25.7
2019-05-25T15:00:43.196Z,25.6
2019-05-25T15:03:49.452Z,25.6
2019-05-25T15:06:55.705Z,25.6
2019-05-25T15:10:01.979Z,25.6
2019-05-25T15:13:08.407Z,25.7
2019-05-25T15:16:14.630Z,25.7
2019-05-25T15:19:20.820Z,25.7
2019-05-25T15:22:27.142Z,25.6
2019-05-25T15:25:33.433Z,25.6
2019-05-25T15:28:39.671Z,25.6
2019-05-25T15:31:45.940Z,25.7
2019-05-25T15:34:52.293Z,25.6
2019-05-25T15:37:58.414Z,25.6
2019-05-25T15:41:04.664Z,25.6
2019-05-25T15:44:10.879Z,25.6
2019-05-25T15:47:17.129Z,25.6
2019-05-25T15:50:23.296Z,25.6
2019-05-25T15:53:29.480Z,25.6
2019-05-25T15:56:35.665Z,25.6
2019-05-25T15:59:41.980Z,25.6
2019-05-25T16:02:48.217Z,25.6
2019-05-25T16:05:54.605Z,25.6
2019-05-25T16:09:01.249Z,25.6
2019-05-25T16:12:07.691Z,25.6
2019-05-25T16:15:13.965Z,25.6
2019-05-25T16:18:20.125Z,25.6
2019-05-25T16:21:26.248Z,25.6
2019-05-25T16:24:32.516Z,25.6
2019-05-25T16:27:38.723Z,25.6
2019-05-25T16:30:44.922Z,25.6
2019-05-25T16:33:51.103Z,25.6
2019-05-25T16:36:57.352Z,25.6
2019-05-25T16:40:03.951Z,25.6
2019-05-25T16:43:10.294Z,25.6
2019-05-25T16:46:16.541Z,25.6
2019-05-25T16:49:22.703Z,25.6
2019-05-25T16:52:28.811Z,25.6
2019-05-25T16:55:34.990Z,25.6
2019-05-25T16:58:41.200Z,25.6
2019-05-25T17:01:48.800Z,25.6
2019-05-25T17:04:55.156Z,25.6
2019-05-25T17:08:01.610Z,25.6
2019-05-25T17:11:07.789Z,25.6
2019-05-25T17:14:13.959Z,25.6
2019-05-25T17:17:20.078Z,25.6
2019-05-25T17:20:26.266Z,25.6
2019-05-25T17:23:32.402Z,25.6
2019-05-25T17:26:38.582Z,25.6
2019-05-25T17:29:44.838Z,25.6
2019-05-25T17:32:51.501Z,25.6
2019-05-25T17:35:57.815Z,25.6
2019-05-25T17:39:03.937Z,25.6
2019-05-25T17:42:10.291Z,25.6
2019-05-25T17:45:16.556Z,25.6
2019-05-25T17:48:22.730Z,25.6
2019-05-25T17:51:29.011Z,25.6
2019-05-25T17:54:35.172Z,25.6
2019-05-25T17:57:41.330Z,25.5
2019-05-25T18:00:47.541Z,25.5
2019-05-25T18:04:06.017Z,25.5
2019-05-25T18:07:13.791Z,25.5
2019-05-25T18:10:19.975Z,25.5
2019-05-25T18:13:28.819Z,25.5
2019-05-25T18:16:37.638Z,25.5
2019-05-25T18:19:43.850Z,25.4
2019-05-25T18:22:50.068Z,25.5
2019-05-25T18:25:56.328Z,25.4
2019-05-25T18:29:02.529Z,25.4
2019-05-25T18:32:08.706Z,25.4
2019-05-25T18:35:14.904Z,25.4
2019-05-25T18:38:21.032Z,25.4
2019-05-25T18:41:27.256Z,25.3
2019-05-25T18:44:33.642Z,25.3
2019-05-25T18:47:39.885Z,25.3
2019-05-25T18:50:46.138Z,25.3
2019-05-25T18:53:52.507Z,25.3
2019-05-25T18:56:58.700Z,25.3
2019-05-25T19:00:13.187Z,25.2
2019-05-25T19:03:19.355Z,25.2
2019-05-25T19:06:25.615Z,25.2
2019-05-25T19:09:31.836Z,25.2
2019-05-25T19:12:38.048Z,25.2
2019-05-25T19:15:44.289Z,25.2
2019-05-25T19:18:50.582Z,25.1
2019-05-25T19:21:56.794Z,25.1
2019-05-25T19:25:03.007Z,25.1
2019-05-25T19:28:09.221Z,25
2019-05-25T19:31:15.490Z,25
2019-05-25T19:34:21.625Z,24.9
2019-05-25T19:37:27.944Z,24.8
2019-05-25T19:40:34.189Z,24.8
2019-05-25T19:43:40.353Z,24.7
2019-05-25T19:46:46.523Z,24.7
2019-05-25T19:49:52.625Z,24.6
2019-05-25T19:52:58.866Z,24.6
2019-05-25T19:56:05.006Z,24.5
2019-05-25T19:59:11.143Z,24.5
2019-05-25T20:02:17.319Z,24.5
2019-05-25T20:05:23.571Z,24.5
2019-05-25T20:08:29.828Z,24.4
2019-05-25T20:11:36.129Z,24.4
2019-05-25T20:14:42.304Z,24.4
2019-05-25T20:17:48.470Z,24.3
2019-05-25T20:20:54.682Z,24.3
2019-05-25T20:24:00.907Z,24.3
2019-05-25T20:27:07.397Z,24.2
2019-05-25T20:30:13.613Z,24.2
2019-05-25T20:33:27.312Z,24.2
2019-05-25T20:36:38.215Z,24.1
2019-05-25T20:39:44.566Z,24.1
2019-05-25T20:42:50.744Z,24.1
2019-05-25T20:45:56.985Z,24.1
2019-05-25T20:49:03.160Z,24
2019-05-25T20:52:09.336Z,24
2019-05-25T20:55:15.560Z,24
2019-05-25T20:58:21.790Z,24
2019-05-25T21:01:28.019Z,24
2019-05-25T21:04:34.115Z,23.9
2019-05-25T21:07:43.121Z,23.9
2019-05-25T21:10:49.417Z,23.9
2019-05-25T21:13:55.604Z,23.9
2019-05-25T21:17:01.863Z,23.8
2019-05-25T21:20:08.134Z,23.8
2019-05-25T21:23:14.274Z,23.8
2019-05-25T21:26:20.409Z,23.7
2019-05-25T21:29:26.611Z,23.7
2019-05-25T21:32:32.788Z,23.7
2019-05-25T21:35:39.023Z,23.7
2019-05-25T21:38:45.166Z,23.7
2019-05-25T21:41:51.358Z,23.6
2019-05-25T21:44:57.490Z,23.6
2019-05-25T21:48:03.659Z,23.6
2019-05-25T21:51:09.848Z,23.6
2019-05-25T21:54:16.007Z,23.5
2019-05-25T21:57:22.200Z,23.5
2019-05-25T22:00:28.313Z,23.5
2019-05-25T22:03:34.484Z,23.5
2019-05-25T22:06:40.744Z,23.5
2019-05-25T22:09:47.071Z,23.5
2019-05-25T22:12:53.302Z,23.4
2019-05-25T22:15:59.579Z,23.4
2019-05-25T22:19:05.781Z,23.4
2019-05-25T22:22:11.953Z,23.4
2019-05-25T22:25:18.147Z,23.4
2019-05-25T22:28:24.449Z,23.3
2019-05-25T22:31:48.238Z,23.3
2019-05-25T22:34:54.414Z,23.3
2019-05-25T22:38:00.792Z,23.3
2019-05-25T22:41:07.061Z,23.3
2019-05-25T22:44:13.293Z,23.3
2019-05-25T22:47:19.452Z,23.2
2019-05-25T22:50:25.751Z,23.2
2019-05-25T22:53:31.996Z,23.2
2019-05-25T22:56:41.139Z,23.2
2019-05-25T22:59:47.364Z,23.1
2019-05-25T23:02:53.509Z,23.1
2019-05-25T23:06:02.199Z,23.1
2019-05-25T23:09:08.672Z,23.1
2019-05-25T23:12:14.929Z,23.1
2019-05-25T23:15:21.098Z,23.1
2019-05-25T23:18:27.294Z,23.1
2019-05-25T23:21:33.481Z,23
2019-05-25T23:24:39.622Z,23
2019-05-25T23:27:45.894Z,23
2019-05-25T23:30:52.086Z,23
2019-05-25T23:33:58.181Z,23
2019-05-25T23:37:13.955Z,23
2019-05-25T23:40:21.046Z,23
2019-05-25T23:43:27.229Z,22.9
2019-05-25T23:46:33.463Z,22.9
2019-05-25T23:49:39.645Z,22.9
2019-05-25T23:52:45.780Z,22.9
2019-05-25T23:55:52.169Z,22.9
2019-05-25T23:58:58.324Z,22.9
